Barrington, NJ (08007)

10:13 AM EST on December 26, 2014 (GMT -0500)
APRSWXNET Haddonfield NJ US | Change Station
CLOSE
Current Station
Personal Weather Station
Location: Haddonfield, NJ
Elevation: 78 ft
Nearby Weather Stations

Elev 78 ft 39.89 °N, 75.03 °W | Updated 38 minutes ago

Clear
Clear
42 °F
Feels Like 42 °F
N
0
Wind Variable Wind from West
Gusts 3.0 mph

Today
High -- | Low -- °F
--% Chance of Precip.
Yesterday
High -- | Low -- °F
Precip. -- in
7:20 AM 4:41 PM
Waxing Crescent, 26% visible
Pressure 30.34 in
Visibility 10.0 miles
Clouds Few 28000 ft
Windchill 42 °F
Dew Point 34 °F
Humidity 73%
Rainfall 0.00 in
Snow Depth Not available.
UV 1 out of 12
Pollen .10 out of 12
Air Quality Not available.
Flu Activity Not available.
METAR KPHL 261454Z 28007KT 10SM FEW280 06/M02 A3034 RMK AO2 SLP272 T00611017 53014

More Conditions Fewer Conditions

Pressure 30.34 in
Visibility 10.0 miles
Clouds Few 28000 ft
Windchill 42 °F
Dew Point 34 °F
Humidity 73%
Rainfall 0.00 in
Snow Depth Not available.
UV 1 out of 12
Pollen .10 out of 12
Air Quality Not available.
Flu Activity Not available.
METAR KPHL 261454Z 28007KT 10SM FEW280 06/M02 A3034 RMK AO2 SLP272 T00611017 53014

More Conditions Fewer Conditions

10-Day Weather Forecast

Almanac

Astronomy

Dec. 26, 2014 Rise Set
Actual Time
Civil Twilight
Nautical Twilight
Astronomical Twilight
Moon
Length of Visible Light
Length of Day
Tomorrow will be .
, % of the Moon is Illuminated

Today's Extremes

State Highs State Lows

Community

WunderPhotos

Upload Photos

1,780,609 photos uploaded!

WunderBlogs® & News

Nearby

Air Quality

  Air Quality AQ Index Pollutant
Not available.

Snow Depth

Station Depth Elevation

Earthquake Activity

City Distance Mag. Time & Date
Minimum magnitude displayed is 2.5.

Coastal Water Temperatures

Place Temperature

Nearby Weather Stations